Time;durP1;ratioP1;P1;durP2;ratioP2;P2;SDS_P1;SDS_P2;PMS_P1;PMS_P2;Temp;Humidity;BMP_temperature;BMP_pressure;BME280_temperature;BME280_humidity;BME280_pressure;Samples;Min_cycle;Max_cycle;Signal;HPM_P1;HPM_P2
2022/09/28 00:02:11;;;;;;;2.88;0.75;;;10.00;99.90;;;;;;4994354;28;20117;-69
2022/09/28 00:04:37;;;;;;;2.75;0.65;;;10.00;99.90;;;;;;4994138;28;20022;-69
2022/09/28 00:07:02;;;;;;;0.82;0.55;;;10.10;99.90;;;;;;5009015;28;20042;-69
2022/09/28 00:09:28;;;;;;;1.65;0.50;;;10.10;99.90;;;;;;5009288;28;20049;-69
2022/09/28 00:11:55;;;;;;;6.18;0.88;;;10.10;99.90;;;;;;4993674;28;20034;-69
2022/09/28 00:14:20;;;;;;;0.43;0.40;;;10.10;99.90;;;;;;4993294;28;20042;-69
2022/09/28 00:16:47;;;;;;;4.32;0.88;;;10.00;99.90;;;;;;4993563;28;20029;-69
2022/09/28 00:19:13;;;;;;;0.38;0.30;;;10.00;99.90;;;;;;4992715;28;20118;-69
2022/09/28 00:21:40;;;;;;;0.60;0.32;;;10.00;99.90;;;;;;4993916;28;20332;-69
2022/09/28 00:24:12;;;;;;;0.60;0.47;;;10.00;99.90;;;;;;5008404;28;20027;-70
2022/09/28 00:26:39;;;;;;;;;;;10.00;99.90;;;;;;4994009;28;20502;-69
2022/09/28 00:29:11;;;;;;;1.13;0.75;;;10.00;99.90;;;;;;4993839;28;19988;-69
2022/09/28 00:31:37;;;;;;;1.35;0.63;;;10.00;99.90;;;;;;5008398;28;20425;-69
2022/09/28 00:34:04;;;;;;;0.55;0.43;;;10.00;99.90;;;;;;4993015;28;20034;-69
2022/09/28 00:36:32;;;;;;;0.47;0.45;;;10.00;99.90;;;;;;4993841;28;20033;-69
2022/09/28 00:39:03;;;;;;;0.57;0.57;;;10.00;99.90;;;;;;4992171;28;20030;-69
2022/09/28 00:41:29;;;;;;;0.70;0.35;;;10.00;99.90;;;;;;4993848;28;20026;-69
2022/09/28 00:44:23;;;;;;;0.75;0.60;;;9.90;99.90;;;;;;4991601;28;20054;-69
2022/09/28 00:46:51;;;;;;;0.50;0.50;;;9.90;99.90;;;;;;4993410;28;20052;-69
2022/09/28 00:49:31;;;;;;;4.38;0.40;;;9.90;99.90;;;;;;4993369;28;20030;-69
2022/09/28 00:51:58;;;;;;;1.13;0.50;;;9.90;99.90;;;;;;4993170;28;20450;-69
2022/09/28 00:54:23;;;;;;;1.38;0.63;;;9.90;99.90;;;;;;5007830;28;20317;-69
2022/09/28 00:56:49;;;;;;;1.50;0.80;;;10.00;99.90;;;;;;5008009;28;20461;-69
2022/09/28 00:59:15;;;;;;;0.68;0.47;;;10.00;99.90;;;;;;4993329;28;20039;-69
2022/09/28 01:01:41;;;;;;;0.35;0.30;;;9.90;99.90;;;;;;4991968;28;20038;-69
2022/09/28 01:04:07;;;;;;;10.85;0.95;;;9.90;99.90;;;;;;4990812;28;20081;-69
2022/09/28 01:06:37;;;;;;;0.70;0.60;;;10.00;99.90;;;;;;4987483;28;20022;-68
2022/09/28 01:09:07;;;;;;;1.27;0.50;;;10.00;99.90;;;;;;4987155;23;20035;-82
2022/09/28 01:11:36;;;;;;;5.07;0.93;;;9.90;99.90;;;;;;4953122;28;20039;-81
2022/09/28 01:14:05;;;;;;;0.55;0.47;;;9.90;99.90;;;;;;4958318;28;20031;-81
2022/09/28 01:17:24;;;;;;;3.17;0.55;;;10.00;99.90;;;;;;4945008;28;20545;-81
2022/09/28 01:20:04;;;;;;;0.90;0.50;;;10.00;99.90;;;;;;4941944;28;20035;-81
2022/09/28 01:23:08;;;;;;;2.07;0.83;;;10.00;99.90;;;;;;4934225;29;20032;-81
2022/09/28 01:26:17;;;;;;;2.00;0.40;;;10.00;99.90;;;;;;4939932;29;20039;-81
2022/09/28 01:28:44;;;;;;;4.57;1.75;;;10.00;99.90;;;;;;4946847;28;20039;-81
2022/09/28 01:31:14;;;;;;;0.68;0.57;;;10.00;99.90;;;;;;4954104;28;20039;-81
2022/09/28 01:33:57;;;;;;;0.57;0.43;;;10.00;99.90;;;;;;4926561;28;20027;-81
2022/09/28 01:36:36;;;;;;;0.45;0.25;;;10.00;99.90;;;;;;4951971;28;20030;-81
2022/09/28 01:39:15;;;;;;;4.05;1.05;;;10.00;99.90;;;;;;4947565;28;20030;-81
2022/09/28 01:41:44;;;;;;;0.47;0.28;;;10.00;99.90;;;;;;4950410;28;20482;-81
2022/09/28 01:44:15;;;;;;;1.92;0.63;;;10.00;99.90;;;;;;4937233;28;20031;-81
2022/09/28 01:46:46;;;;;;;0.82;0.30;;;10.00;99.90;;;;;;4936856;29;20031;-80
2022/09/28 01:49:27;;;;;;;3.33;0.32;;;10.00;99.90;;;;;;4921246;28;20043;-79
2022/09/28 01:52:04;;;;;;;1.55;0.32;;;9.90;99.90;;;;;;4939082;29;20035;-80
2022/09/28 01:54:51;;;;;;;1.05;0.30;;;10.00;99.90;;;;;;4963040;28;20541;-80
2022/09/28 01:57:47;;;;;;;1.38;0.65;;;10.00;99.90;;;;;;4951527;28;20047;-80
2022/09/28 02:00:16;;;;;;;0.17;0.17;;;10.00;99.90;;;;;;4953607;28;20054;-80
2022/09/28 02:03:11;;;;;;;3.10;0.65;;;10.00;99.90;;;;;;4944244;28;20031;-80
2022/09/28 02:05:41;;;;;;;0.85;0.60;;;10.00;99.90;;;;;;4937978;28;20073;-80
2022/09/28 02:08:30;;;;;;;1.15;0.80;;;10.00;99.90;;;;;;4955195;28;20050;-80
2022/09/28 02:11:16;;;;;;;0.25;0.22;;;10.00;99.90;;;;;;4938356;28;20067;-80
2022/09/28 02:14:04;;;;;;;2.78;0.60;;;10.00;99.90;;;;;;4952915;28;20046;-80
2022/09/28 02:16:46;;;;;;;0.25;0.13;;;10.10;99.90;;;;;;4935954;29;20023;-81
2022/09/28 02:19:25;;;;;;;0.13;0.13;;;10.10;99.90;;;;;;4963828;28;20043;-82
2022/09/28 02:22:22;;;;;;;1.08;0.43;;;10.10;99.90;;;;;;4939976;28;20070;-80
2022/09/28 02:25:09;;;;;;;0.55;0.40;;;10.10;99.90;;;;;;4953128;28;20442;-80
2022/09/28 02:27:56;;;;;;;0.45;0.30;;;10.00;99.90;;;;;;4942477;28;20042;-81
2022/09/28 02:30:22;;;;;;;1.15;0.73;;;10.10;99.90;;;;;;4933306;28;20034;-81
2022/09/28 02:32:52;;;;;;;3.35;0.45;;;10.00;99.90;;;;;;4957254;28;20031;-80
2022/09/28 02:35:18;;;;;;;0.25;0.20;;;10.10;99.90;;;;;;4935762;28;20174;-80
2022/09/28 02:37:45;;;;;;;0.52;0.45;;;10.00;99.90;;;;;;4936212;29;20039;-81
2022/09/28 02:40:22;;;;;;;0.03;0.03;;;10.00;99.90;;;;;;4935409;28;20035;-81
2022/09/28 02:43:08;;;;;;;0.20;0.20;;;10.00;99.90;;;;;;4936377;29;20034;-81
2022/09/28 02:46:24;;;;;;;0.30;0.25;;;10.00;99.90;;;;;;4936244;28;20019;-80
2022/09/28 02:49:20;;;;;;;1.85;0.90;;;10.10;99.90;;;;;;4944214;28;20031;-81
2022/09/28 02:52:23;;;;;;;1.02;0.20;;;10.10;99.90;;;;;;4955933;28;20109;-80
2022/09/28 02:54:59;;;;;;;0.10;0.10;;;10.10;99.90;;;;;;4966255;28;20078;-80
2022/09/28 02:57:48;;;;;;;0.10;0.10;;;10.10;99.90;;;;;;4935620;29;20035;-80
2022/09/28 03:00:18;;;;;;;0.35;0.25;;;10.20;99.90;;;;;;4959157;28;20562;-80
2022/09/28 03:03:28;;;;;;;2.67;0.50;;;10.20;99.90;;;;;;4935428;29;20048;-80
2022/09/28 03:06:20;;;;;;;0.57;0.25;;;10.20;99.90;;;;;;4938067;28;20102;-80
2022/09/28 03:09:01;;;;;;;0.28;0.28;;;10.20;99.90;;;;;;4935936;29;20031;-80
2022/09/28 03:11:41;;;;;;;0.60;0.30;;;10.20;99.90;;;;;;4935959;28;20031;-80
2022/09/28 03:14:10;;;;;;;1.50;0.50;;;10.10;99.90;;;;;;4919274;28;20459;-81
2022/09/28 03:16:36;;;;;;;0.75;0.55;;;10.20;99.90;;;;;;4934808;29;20506;-80
2022/09/28 03:19:02;;;;;;;4.03;2.45;;;10.10;99.90;;;;;;4951589;28;20059;-81
2022/09/28 03:21:27;;;;;;;5.90;0.30;;;10.10;99.90;;;;;;4959599;28;20027;-80
2022/09/28 03:23:53;;;;;;;0.20;0.20;;;10.10;99.90;;;;;;4951756;28;20031;-80
2022/09/28 03:26:19;;;;;;;0.80;0.43;;;10.10;99.90;;;;;;4952153;28;20035;-80
2022/09/28 03:28:44;;;;;;;3.20;0.88;;;10.20;99.90;;;;;;4952843;28;20043;-80
2022/09/28 03:31:10;;;;;;;0.90;0.43;;;10.20;99.90;;;;;;4952257;28;20126;-80
2022/09/28 03:33:36;;;;;;;1.33;0.55;;;10.10;99.90;;;;;;4969697;28;20118;-80
2022/09/28 03:36:01;;;;;;;0.20;0.20;;;10.00;99.90;;;;;;4970960;28;20105;-80
2022/09/28 03:38:27;;;;;;;0.80;0.50;;;10.00;99.90;;;;;;4941607;29;20506;-80
2022/09/28 03:40:58;;;;;;;2.97;1.02;;;10.00;99.90;;;;;;4950541;28;20079;-80
2022/09/28 03:43:25;;;;;;;;;;;10.00;99.90;;;;;;4936606;28;20044;-80
2022/09/28 03:45:57;;;;;;;0.43;0.43;;;10.00;99.90;;;;;;4950315;28;20366;-81
2022/09/28 03:48:27;;;;;;;0.95;0.35;;;10.00;99.90;;;;;;4949585;28;20034;-80
2022/09/28 03:50:59;;;;;;;0.50;0.28;;;10.00;99.90;;;;;;4908708;28;20038;-77
2022/09/28 03:53:25;;;;;;;1.08;0.77;;;9.90;99.90;;;;;;4949418;28;20024;-76
2022/09/28 03:55:52;;;;;;;0.40;0.40;;;9.90;99.90;;;;;;4951229;28;20033;-80
2022/09/28 03:58:20;;;;;;;0.80;0.50;;;10.10;99.90;;;;;;4943274;28;20066;-79
2022/09/28 04:00:46;;;;;;;2.28;0.43;;;10.00;99.90;;;;;;4933053;28;20066;-70
2022/09/28 04:03:12;;;;;;;2.40;0.82;;;10.10;99.90;;;;;;4930025;28;20478;-69
2022/09/28 04:05:38;;;;;;;6.30;0.98;;;10.10;99.90;;;;;;4953888;28;20035;-69
2022/09/28 04:08:04;;;;;;;5.10;0.85;;;10.00;99.90;;;;;;4931910;28;20024;-69
2022/09/28 04:10:30;;;;;;;2.92;0.55;;;9.90;99.90;;;;;;4949562;28;20102;-69
2022/09/28 04:12:56;;;;;;;0.68;0.60;;;10.00;99.90;;;;;;4955682;28;20035;-69
2022/09/28 04:15:23;;;;;;;7.45;0.77;;;9.90;99.90;;;;;;4946005;28;20024;-69
2022/09/28 04:17:50;;;;;;;0.98;0.88;;;9.90;99.90;;;;;;4951282;28;20109;-70
2022/09/28 04:20:17;;;;;;;2.30;1.15;;;10.00;99.90;;;;;;4950934;28;20046;-69
2022/09/28 04:22:43;;;;;;;3.60;0.98;;;10.00;99.90;;;;;;4936241;28;20024;-69
2022/09/28 04:25:09;;;;;;;4.63;0.68;;;10.00;99.90;;;;;;4950297;28;20151;-68
2022/09/28 04:30:20;;;;;;;2.70;0.95;;;10.10;99.90;;;;;;4944956;28;20090;-70
2022/09/28 04:32:46;;;;;;;1.98;1.33;;;10.10;99.90;;;;;;4934852;29;20123;-70
2022/09/28 04:35:12;;;;;;;0.55;0.38;;;10.10;99.90;;;;;;4962287;28;20027;-70
2022/09/28 04:37:39;;;;;;;1.20;0.75;;;10.10;99.90;;;;;;4958834;28;20050;-70
2022/09/28 04:40:05;;;;;;;2.95;0.98;;;10.00;99.90;;;;;;4954111;28;20550;-70
2022/09/28 04:42:31;;;;;;;1.90;1.05;;;10.00;99.90;;;;;;4965102;28;20112;-69
2022/09/28 04:44:57;;;;;;;1.23;0.68;;;10.00;99.90;;;;;;4963364;28;20031;-70
2022/09/28 04:47:24;;;;;;;1.80;0.80;;;10.00;99.90;;;;;;4953974;28;20031;-69
2022/09/28 04:49:50;;;;;;;1.25;0.50;;;10.10;99.90;;;;;;4960458;28;20034;-69
2022/09/28 04:52:15;;;;;;;1.58;0.70;;;10.00;99.90;;;;;;4958732;28;20027;-70
2022/09/28 04:54:41;;;;;;;1.60;1.20;;;10.00;99.90;;;;;;4957601;28;20035;-68
2022/09/28 04:57:07;;;;;;;1.35;0.60;;;9.90;99.90;;;;;;4958822;28;20047;-69
2022/09/28 04:59:32;;;;;;;2.67;1.23;;;9.90;99.90;;;;;;4954241;28;20031;-69
2022/09/28 05:01:58;;;;;;;1.02;0.55;;;9.90;99.90;;;;;;4953906;28;20031;-69
2022/09/28 05:04:24;;;;;;;1.27;0.98;;;9.90;99.90;;;;;;4953343;28;20033;-69
2022/09/28 05:06:49;;;;;;;1.67;0.98;;;9.90;99.90;;;;;;4949067;28;20031;-68
2022/09/28 05:09:15;;;;;;;1.17;0.70;;;9.90;99.90;;;;;;4964988;28;20066;-69
2022/09/28 05:11:41;;;;;;;2.13;0.95;;;9.90;99.90;;;;;;4961569;28;20057;-68
2022/09/28 05:14:07;;;;;;;3.65;1.30;;;9.90;99.90;;;;;;4953614;28;20034;-68
2022/09/28 05:16:32;;;;;;;1.20;0.70;;;9.90;99.90;;;;;;4953235;28;20039;-68
2022/09/28 05:18:59;;;;;;;0.57;0.43;;;9.90;99.90;;;;;;4952423;28;20406;-69
2022/09/28 05:21:26;;;;;;;3.03;1.15;;;10.00;99.90;;;;;;4958976;28;20397;-69
2022/09/28 05:23:54;;;;;;;1.33;0.80;;;10.00;99.90;;;;;;4955042;28;20029;-69
2022/09/28 05:26:21;;;;;;;8.32;1.17;;;10.00;99.90;;;;;;4945348;28;20548;-70
2022/09/28 05:28:49;;;;;;;5.28;1.25;;;10.10;99.90;;;;;;4936888;29;20145;-72
2022/09/28 05:31:16;;;;;;;0.70;0.57;;;10.10;99.90;;;;;;4961316;28;20561;-70
2022/09/28 05:33:41;;;;;;;1.08;0.82;;;10.00;99.90;;;;;;4952942;28;20091;-70
2022/09/28 05:36:09;;;;;;;1.45;0.80;;;10.10;99.90;;;;;;4936035;28;20047;-69
2022/09/28 05:38:35;;;;;;;2.88;0.88;;;10.00;99.90;;;;;;4961598;28;20036;-71
2022/09/28 05:41:01;;;;;;;0.88;0.65;;;10.00;99.90;;;;;;4968408;28;20118;-70
2022/09/28 05:43:27;;;;;;;2.90;1.90;;;10.10;99.90;;;;;;4954220;28;20114;-70
2022/09/28 05:45:52;;;;;;;1.25;0.80;;;10.10;99.90;;;;;;4952446;28;20039;-69
2022/09/28 05:48:18;;;;;;;1.17;0.80;;;10.10;99.90;;;;;;4943299;28;20039;-70
2022/09/28 05:50:48;;;;;;;0.68;0.65;;;10.00;99.90;;;;;;4933292;29;20055;-69
2022/09/28 05:53:14;;;;;;;1.35;0.88;;;10.10;99.90;;;;;;4936374;29;20034;-70
2022/09/28 05:55:39;;;;;;;1.50;1.02;;;10.10;99.90;;;;;;4952973;28;20031;-70
2022/09/28 05:58:06;;;;;;;2.03;0.88;;;10.10;99.90;;;;;;4954140;28;20115;-70
2022/09/28 06:00:34;;;;;;;2.15;0.80;;;10.10;99.90;;;;;;4952374;28;20039;-70
2022/09/28 06:03:03;;;;;;;3.20;1.35;;;10.20;99.90;;;;;;4934847;29;20027;-69
2022/09/28 06:05:31;;;;;;;1.80;0.68;;;10.20;99.90;;;;;;4953986;28;20031;-69
2022/09/28 06:07:58;;;;;;;5.13;0.98;;;10.20;99.90;;;;;;4955613;28;20045;-69
2022/09/28 06:10:26;;;;;;;2.50;1.23;;;10.20;99.90;;;;;;4935819;28;20498;-73
2022/09/28 06:12:55;;;;;;;4.45;1.27;;;10.30;99.90;;;;;;4954048;28;20380;-76
2022/09/28 06:15:23;;;;;;;1.80;0.95;;;10.30;99.90;;;;;;4951909;28;20038;-76
2022/09/28 06:18:04;;;;;;;1.80;1.00;;;10.30;99.90;;;;;;4936240;29;20027;-77
2022/09/28 06:20:36;;;;;;;3.90;1.40;;;10.30;99.90;;;;;;4960056;28;20082;-76
2022/09/28 06:23:02;;;;;;;3.25;1.33;;;10.30;99.90;;;;;;4939161;29;20079;-76
2022/09/28 06:25:27;;;;;;;3.53;2.22;;;10.30;99.90;;;;;;4935397;29;20105;-76
2022/09/28 06:28:01;;;;;;;1.55;1.00;;;10.30;99.90;;;;;;4952336;28;20109;-76
2022/09/28 06:30:29;;;;;;;4.28;0.88;;;10.30;99.90;;;;;;4952216;28;20058;-77
2022/09/28 06:32:57;;;;;;;8.98;1.33;;;10.30;99.90;;;;;;4935244;29;20054;-76
2022/09/28 06:35:26;;;;;;;9.95;1.33;;;10.50;99.90;;;;;;4952781;28;20046;-77
2022/09/28 06:37:52;;;;;;;1.42;0.95;;;10.50;99.90;;;;;;4957781;28;20042;-77
2022/09/28 06:40:20;;;;;;;4.47;1.27;;;10.60;99.90;;;;;;4946556;29;20450;-77
2022/09/28 06:43:08;;;;;;;1.55;1.05;;;10.60;99.90;;;;;;4944300;28;20035;-76
2022/09/28 06:45:35;;;;;;;8.23;1.65;;;10.70;99.90;;;;;;4960306;28;20038;-77
2022/09/28 06:48:02;;;;;;;1.20;0.77;;;10.70;99.90;;;;;;4952441;28;20067;-76
2022/09/28 06:50:31;;;;;;;10.60;1.88;;;10.80;99.90;;;;;;4952087;28;20027;-76
2022/09/28 06:52:58;;;;;;;1.48;0.73;;;10.90;99.90;;;;;;4952061;28;20106;-76
2022/09/28 06:55:24;;;;;;;2.13;0.98;;;11.00;99.90;;;;;;4952333;28;20035;-76
2022/09/28 06:58:06;;;;;;;8.65;1.55;;;11.00;99.90;;;;;;4964559;28;20051;-77
2022/09/28 07:00:34;;;;;;;;;;;11.00;99.90;;;;;;4935374;28;20039;-76
2022/09/28 07:03:10;;;;;;;2.17;1.08;;;11.00;99.90;;;;;;4935095;29;19911;-77
2022/09/28 07:05:40;;;;;;;2.05;1.17;;;11.00;99.90;;;;;;4950624;28;20544;-77
2022/09/28 07:08:06;;;;;;;1.02;0.68;;;11.10;99.90;;;;;;4935370;29;20551;-77
2022/09/28 07:10:32;;;;;;;2.55;1.35;;;11.00;99.90;;;;;;4959043;28;20045;-77
2022/09/28 07:13:02;;;;;;;7.30;1.20;;;10.90;99.90;;;;;;4950730;28;20039;-77
2022/09/28 07:15:29;;;;;;;2.10;1.20;;;11.00;99.90;;;;;;4935108;29;20123;-77
2022/09/28 07:18:04;;;;;;;2.03;1.27;;;11.10;99.90;;;;;;4958892;28;20039;-77
2022/09/28 07:20:32;;;;;;;7.07;1.48;;;11.10;99.90;;;;;;4960086;28;20042;-77
2022/09/28 07:23:01;;;;;;;4.97;1.77;;;11.10;99.90;;;;;;4938813;28;20022;-77
2022/09/28 07:25:31;;;;;;;4.53;1.05;;;11.20;99.90;;;;;;4947776;28;20039;-77
2022/09/28 07:28:02;;;;;;;1.55;1.20;;;11.20;99.90;;;;;;4950603;28;20031;-77
2022/09/28 07:30:33;;;;;;;8.68;1.55;;;11.30;99.90;;;;;;4952201;28;20063;-77
2022/09/28 07:33:00;;;;;;;3.13;1.08;;;11.20;99.90;;;;;;4967166;28;20060;-75
2022/09/28 07:35:27;;;;;;;3.80;1.48;;;11.20;99.90;;;;;;4934898;29;20063;-77
2022/09/28 07:37:59;;;;;;;4.38;1.05;;;11.20;99.90;;;;;;4955857;28;20087;-77
2022/09/28 07:43:12;;;;;;;1.20;0.57;;;11.40;99.90;;;;;;4946321;28;20087;-77
2022/09/28 07:45:38;;;;;;;1.48;0.82;;;11.40;99.90;;;;;;4942253;28;20038;-77
2022/09/28 07:48:04;;;;;;;3.22;0.52;;;11.50;99.90;;;;;;4924419;28;20475;-78
2022/09/28 07:50:30;;;;;;;4.30;1.40;;;11.60;99.90;;;;;;4970291;28;20042;-75
2022/09/28 07:52:57;;;;;;;1.67;0.70;;;11.80;99.90;;;;;;4934177;29;20115;-76
2022/09/28 07:55:23;;;;;;;5.45;0.60;;;11.80;99.90;;;;;;4947981;28;20035;-76
2022/09/28 07:57:59;;;;;;;0.85;0.80;;;11.80;99.90;;;;;;4950686;28;20030;-64
2022/09/28 08:00:31;;;;;;;1.13;0.63;;;11.80;99.90;;;;;;4947593;28;20037;-76
2022/09/28 08:03:03;;;;;;;;;;;11.80;99.90;;;;;;4931090;28;20039;-75
2022/09/28 08:05:34;;;;;;;1.33;0.80;;;11.90;99.90;;;;;;4957899;28;19968;-76
2022/09/28 08:08:01;;;;;;;1.95;0.73;;;11.90;99.90;;;;;;4952601;28;20031;-76
2022/09/28 08:10:27;;;;;;;8.35;1.02;;;11.90;99.90;;;;;;4963600;28;20493;-76
2022/09/28 08:12:59;;;;;;;4.55;0.85;;;11.90;99.90;;;;;;4953996;28;20043;-76
2022/09/28 08:15:26;;;;;;;4.35;0.73;;;11.90;99.90;;;;;;4954939;28;20059;-76
2022/09/28 08:17:51;;;;;;;3.78;1.20;;;12.00;99.90;;;;;;4961909;28;20539;-76
2022/09/28 08:23:07;;;;;;;3.42;0.90;;;12.20;99.90;;;;;;4938375;28;20034;-76
2022/09/28 08:25:37;;;;;;;3.33;0.68;;;12.60;99.90;;;;;;4945132;28;20457;-77
2022/09/28 08:28:07;;;;;;;1.42;1.23;;;12.60;99.90;;;;;;4938574;29;20024;-76
2022/09/28 08:30:33;;;;;;;1.37;0.63;;;12.60;99.90;;;;;;4963115;28;20027;-76
2022/09/28 08:32:58;;;;;;;3.70;0.70;;;12.60;99.90;;;;;;4954526;28;20109;-76
2022/09/28 08:35:25;;;;;;;2.03;0.80;;;12.70;99.90;;;;;;4960707;28;20389;-76
2022/09/28 08:37:53;;;;;;;8.57;1.30;;;12.60;99.90;;;;;;4954329;28;20078;-77
2022/09/28 08:40:24;;;;;;;1.85;1.02;;;12.70;99.90;;;;;;4953575;28;20043;-76
2022/09/28 08:43:04;;;;;;;3.30;0.88;;;12.70;99.90;;;;;;4939024;28;20142;-76
2022/09/28 08:45:33;;;;;;;2.30;1.52;;;12.90;99.90;;;;;;4956048;28;20039;-76
2022/09/28 08:51:06;;;;;;;2.60;0.98;;;13.10;99.90;;;;;;4946182;28;20023;-75
2022/09/28 08:53:55;;;;;;;4.60;1.00;;;13.10;99.90;;;;;;4956912;28;20119;-75
2022/09/28 08:56:48;;;;;;;3.55;0.60;;;12.90;99.90;;;;;;4953478;28;20114;-78
2022/09/28 08:59:25;;;;;;;0.93;0.57;;;12.60;99.90;;;;;;4936786;29;20098;-78
2022/09/28 09:02:02;;;;;;;1.75;0.77;;;12.60;99.90;;;;;;4936073;28;20035;-78
2022/09/28 09:04:31;;;;;;;2.05;0.65;;;12.80;99.90;;;;;;4937540;29;20562;-78
2022/09/28 09:07:28;;;;;;;3.83;0.63;;;13.00;99.90;;;;;;4921386;29;20035;-77
2022/09/28 09:10:50;;;;;;;0.17;0.17;;;13.00;99.90;;;;;;4952123;28;20036;-76
2022/09/28 09:13:47;;;;;;;0.90;0.45;;;13.10;99.90;;;;;;4949361;28;20042;-76
2022/09/28 09:16:36;;;;;;;3.33;0.90;;;12.80;99.90;;;;;;4938277;28;20027;-76
2022/09/28 09:19:34;;;;;;;2.30;0.80;;;12.80;99.90;;;;;;4949974;28;20039;-76
2022/09/28 09:22:10;;;;;;;2.63;0.88;;;12.90;99.90;;;;;;4940355;28;20035;-76
2022/09/28 09:24:50;;;;;;;0.98;0.43;;;12.80;99.90;;;;;;4936781;29;20129;-77
2022/09/28 09:28:16;;;;;;;0.85;0.50;;;12.80;99.90;;;;;;4948898;28;20039;-76
2022/09/28 09:31:29;;;;;;;11.02;0.82;;;13.10;99.90;;;;;;4936493;28;20374;-76
2022/09/28 09:34:28;;;;;;;6.65;1.15;;;13.30;99.90;;;;;;4939089;28;20483;-74
2022/09/28 09:37:19;;;;;;;6.57;0.95;;;13.20;99.90;;;;;;4954008;28;20487;-76
2022/09/28 09:40:19;;;;;;;1.42;0.60;;;13.10;99.90;;;;;;4958286;28;20058;-76
2022/09/28 09:43:13;;;;;;;4.03;0.67;;;13.00;99.90;;;;;;4921666;28;20130;-76
2022/09/28 09:46:09;;;;;;;1.65;0.52;;;13.00;99.90;;;;;;4966990;28;20042;-78
2022/09/28 09:48:43;;;;;;;3.13;1.95;;;13.00;99.90;;;;;;4953637;28;20086;-77
2022/09/28 09:51:22;;;;;;;1.25;0.60;;;13.20;99.90;;;;;;4937016;28;20513;-76
2022/09/28 09:54:26;;;;;;;2.28;0.50;;;13.40;99.90;;;;;;4919940;28;20609;-76
2022/09/28 09:57:02;;;;;;;3.30;0.50;;;14.00;99.90;;;;;;4951757;28;20027;-76
2022/09/28 09:59:38;;;;;;;2.55;0.50;;;14.10;99.90;;;;;;4955997;28;20035;-77
2022/09/28 10:02:28;;;;;;;1.48;0.93;;;14.00;99.90;;;;;;4934707;28;20031;-75
2022/09/28 10:05:14;;;;;;;4.90;0.63;;;13.80;99.90;;;;;;4953654;28;20050;-76
2022/09/28 10:07:57;;;;;;;0.77;0.43;;;13.80;99.90;;;;;;4930920;28;20503;-77
2022/09/28 10:10:35;;;;;;;2.30;0.50;;;13.90;99.90;;;;;;4940747;28;20431;-78
2022/09/28 10:13:03;;;;;;;1.35;0.68;;;14.00;99.90;;;;;;4943535;28;20045;-76
2022/09/28 10:15:32;;;;;;;1.63;0.60;;;14.00;99.90;;;;;;4951981;28;20058;-77
2022/09/28 10:18:09;;;;;;;3.50;0.82;;;14.20;99.90;;;;;;4937688;28;20046;-76
2022/09/28 10:20:39;;;;;;;0.60;0.47;;;14.20;99.90;;;;;;4934796;29;20035;-77
2022/09/28 10:23:19;;;;;;;1.40;0.70;;;14.10;99.90;;;;;;4934790;28;20039;-77
2022/09/28 10:25:46;;;;;;;3.80;2.50;;;14.30;99.90;;;;;;4943719;28;20030;-77
2022/09/28 10:28:23;;;;;;;1.02;0.73;;;14.60;99.90;;;;;;4941105;29;20031;-77
2022/09/28 10:30:49;;;;;;;4.80;0.40;;;14.40;99.90;;;;;;4951023;28;20031;-77
2022/09/28 10:33:33;;;;;;;0.88;0.30;;;14.30;99.90;;;;;;4935184;29;20027;-78
2022/09/28 10:36:03;;;;;;;0.47;0.47;;;14.60;99.90;;;;;;4960675;28;20122;-76
2022/09/28 10:38:33;;;;;;;3.00;1.27;;;14.60;99.90;;;;;;4952746;28;20054;-76
2022/09/28 10:41:08;;;;;;;0.73;0.40;;;14.70;99.90;;;;;;4935067;28;20027;-77
2022/09/28 10:43:38;;;;;;;0.88;0.30;;;15.00;99.80;;;;;;4942223;28;20027;-76
2022/09/28 10:46:14;;;;;;;1.15;0.63;;;15.30;99.90;;;;;;4962867;28;20033;-76
2022/09/28 10:49:14;;;;;;;2.33;0.65;;;15.60;99.40;;;;;;4922167;28;20126;-77
2022/09/28 10:51:48;;;;;;;1.92;0.40;;;16.00;99.90;;;;;;4963514;28;20417;-77
2022/09/28 10:54:24;;;;;;;4.28;0.30;;;16.00;98.90;;;;;;4951969;28;20043;-76
2022/09/28 10:56:52;;;;;;;0.50;0.30;;;15.60;98.00;;;;;;4957498;28;20085;-75
2022/09/28 10:59:22;;;;;;;0.22;0.22;;;15.30;98.20;;;;;;4939846;29;20039;-76
2022/09/28 11:02:01;;;;;;;3.10;0.47;;;15.30;99.70;;;;;;4951055;28;20067;-77
2022/09/28 11:04:38;;;;;;;4.18;0.70;;;15.50;99.10;;;;;;4937502;28;20026;-77
2022/09/28 11:07:12;;;;;;;1.42;0.63;;;15.10;99.60;;;;;;4938765;28;20033;-77
2022/09/28 11:09:41;;;;;;;26.10;0.82;;;15.30;99.90;;;;;;4935994;29;20061;-77
2022/09/28 11:12:16;;;;;;;0.73;0.40;;;15.60;99.80;;;;;;4934929;28;20082;-77
2022/09/28 11:14:43;;;;;;;4.82;0.50;;;15.70;99.40;;;;;;4934903;29;20805;-77
2022/09/28 11:17:15;;;;;;;2.58;0.60;;;15.60;99.90;;;;;;4968047;28;20105;-76
2022/09/28 11:19:42;;;;;;;0.52;0.25;;;15.50;99.80;;;;;;4962834;28;20046;-76
2022/09/28 11:22:40;;;;;;;0.93;0.80;;;15.20;99.90;;;;;;4951177;28;20058;-76
2022/09/28 11:25:15;;;;;;;6.05;0.80;;;14.30;99.90;;;;;;4952764;28;20648;-77
2022/09/28 11:27:50;;;;;;;1.80;0.60;;;14.30;99.90;;;;;;4968801;28;20046;-77
2022/09/28 11:30:50;;;;;;;2.00;0.38;;;14.40;99.90;;;;;;4945053;28;20031;-76
2022/09/28 11:33:37;;;;;;;1.60;0.82;;;14.30;99.90;;;;;;4940012;28;20034;-77
2022/09/28 11:36:12;;;;;;;1.33;0.57;;;14.30;99.90;;;;;;4945584;28;20082;-75
2022/09/28 11:38:59;;;;;;;1.27;0.43;;;14.00;99.90;;;;;;4959011;28;20039;-76
2022/09/28 11:42:03;;;;;;;0.70;0.45;;;13.90;99.90;;;;;;4945721;28;20038;-76
2022/09/28 11:44:45;;;;;;;5.43;0.70;;;13.70;99.90;;;;;;4943006;28;20108;-76
2022/09/28 11:47:39;;;;;;;2.03;0.52;;;13.90;99.90;;;;;;4939722;29;20031;-77
2022/09/28 11:50:48;;;;;;;5.28;0.45;;;14.00;99.90;;;;;;4955559;28;20069;-76
2022/09/28 11:53:42;;;;;;;1.00;0.52;;;13.90;99.90;;;;;;4957802;28;20035;-76
2022/09/28 11:56:34;;;;;;;0.45;0.28;;;14.00;99.90;;;;;;4948624;28;20157;-76
2022/09/28 11:59:37;;;;;;;2.13;0.43;;;14.10;99.80;;;;;;4946430;28;20457;-76
2022/09/28 12:02:20;;;;;;;5.82;1.45;;;14.20;99.70;;;;;;4947833;28;20031;-76
2022/09/28 12:04:52;;;;;;;2.70;1.02;;;14.50;99.50;;;;;;4955400;28;20031;-75
2022/09/28 12:07:26;;;;;;;;;;;14.80;99.70;;;;;;4962660;28;20050;-77
2022/09/28 12:10:36;;;;;;;0.52;0.40;;;14.70;99.80;;;;;;4956379;28;19918;-75
2022/09/28 12:13:21;;;;;;;0.43;0.25;;;14.80;97.80;;;;;;4946417;28;20107;-75
2022/09/28 12:16:22;;;;;;;6.32;0.40;;;15.20;97.30;;;;;;4951164;28;20061;-76
2022/09/28 12:19:12;;;;;;;1.98;0.25;;;15.10;97.70;;;;;;4973370;28;20043;-76
2022/09/28 12:21:56;;;;;;;0.45;0.20;;;15.00;98.20;;;;;;4934211;28;20494;-76
2022/09/28 12:25:01;;;;;;;0.85;0.30;;;14.90;97.70;;;;;;4949618;28;20035;-75
2022/09/28 12:27:46;;;;;;;0.75;0.28;;;14.90;97.70;;;;;;4927559;28;20043;-75
2022/09/28 12:30:19;;;;;;;1.13;0.68;;;14.90;98.80;;;;;;4953227;28;20027;-78
2022/09/28 12:32:59;;;;;;;0.20;0.20;;;14.50;99.70;;;;;;4939735;29;20039;-78
2022/09/28 12:36:11;;;;;;;0.77;0.40;;;14.70;99.70;;;;;;4961651;28;20061;-78
2022/09/28 12:39:07;;;;;;;1.50;0.68;;;14.90;99.70;;;;;;4950072;28;20035;-79
2022/09/28 12:41:59;;;;;;;0.85;0.43;;;15.00;99.80;;;;;;4945513;28;20062;-78
2022/09/28 12:44:58;;;;;;;5.25;0.73;;;15.10;98.80;;;;;;4953668;28;20035;-78
2022/09/28 12:47:33;;;;;;;0.73;0.25;;;15.10;98.80;;;;;;4956665;28;20438;-78
2022/09/28 12:50:13;;;;;;;0.32;0.30;;;15.10;99.50;;;;;;4955153;28;20114;-78
2022/09/28 12:53:12;;;;;;;1.35;0.50;;;15.10;98.90;;;;;;4951919;28;20036;-78
2022/09/28 12:55:58;;;;;;;7.78;0.95;;;15.20;98.90;;;;;;4938871;28;20110;-78
2022/09/28 12:58:58;;;;;;;4.22;0.65;;;15.20;98.90;;;;;;4931082;28;20039;-78
2022/09/28 13:01:52;;;;;;;1.73;0.82;;;15.20;98.80;;;;;;4951168;28;20030;-78
2022/09/28 13:04:48;;;;;;;4.32;0.47;;;15.10;99.40;;;;;;4939270;28;20031;-78
2022/09/28 13:08:11;;;;;;;2.67;0.40;;;15.20;99.30;;;;;;4969760;23;20438;-67
2022/09/28 13:11:17;;;;;;;2.75;1.23;;;15.20;98.60;;;;;;4956346;28;20051;-73
2022/09/28 13:13:51;;;;;;;0.45;0.40;;;15.30;99.30;;;;;;4989885;28;20118;-73
2022/09/28 13:16:32;;;;;;;1.25;0.73;;;16.30;97.90;;;;;;4986631;28;20507;-73
2022/09/28 13:19:28;;;;;;;0.80;0.45;;;17.50;95.90;;;;;;4975462;28;20042;-74
2022/09/28 13:22:15;;;;;;;0.40;0.32;;;18.40;94.50;;;;;;4972090;28;20058;-73
2022/09/28 13:24:43;;;;;;;0.30;0.30;;;17.40;94.30;;;;;;4968874;28;20034;-72
2022/09/28 13:27:34;;;;;;;2.22;0.77;;;17.20;94.90;;;;;;4969678;28;20031;-72
2022/09/28 13:30:05;;;;;;;2.33;0.45;;;16.80;95.10;;;;;;4968108;28;20490;-73
2022/09/28 13:32:35;;;;;;;1.75;0.40;;;16.60;96.20;;;;;;4970412;28;20117;-73
2022/09/28 13:35:01;;;;;;;0.30;0.30;;;16.60;96.90;;;;;;4964147;28;20027;-73
2022/09/28 13:37:28;;;;;;;2.00;1.48;;;16.90;96.10;;;;;;4970282;28;20122;-73
2022/09/28 13:39:58;;;;;;;0.95;0.40;;;17.30;95.30;;;;;;4971964;28;20033;-73
2022/09/28 13:42:51;;;;;;;1.95;1.38;;;17.50;93.00;;;;;;4971028;28;20078;-72
2022/09/28 13:45:19;;;;;;;2.97;0.43;;;16.60;95.30;;;;;;4967351;28;20046;-76